Time;durP1;ratioP1;P1;durP2;ratioP2;P2;SDS_P1;SDS_P2;PMS_P1;PMS_P2;Temp;Humidity;BMP_temperature;BMP_pressure;BME280_temperature;BME280_humidity;BME280_pressure;Samples;Min_cycle;Max_cycle;Signal;HPM_P1;HPM_P2
2022/08/25 00:00:15;;;;;;;7.00;3.53;;;;;;;24.48;70.49;101515.84;5056054;28;20041;-47
2022/08/25 00:02:43;;;;;;;8.50;4.05;;;;;;;24.47;70.58;101516.22;5071475;28;20089;-50
2022/08/25 00:05:28;;;;;;;7.35;3.85;;;;;;;24.43;70.52;101516.03;5073728;28;20040;-48
2022/08/25 00:08:00;;;;;;;5.55;3.63;;;;;;;24.45;70.67;101517.31;5073821;28;20039;-51
2022/08/25 00:10:28;;;;;;;7.47;4.05;;;;;;;24.49;70.01;101511.91;5072899;28;20044;-50
2022/08/25 00:12:56;;;;;;;7.22;3.38;;;;;;;24.51;70.11;101512.41;5054574;28;20037;-51
2022/08/25 00:15:24;;;;;;;8.45;3.55;;;;;;;24.45;69.96;101514.53;5055569;28;20415;-49
2022/08/25 00:17:52;;;;;;;8.60;3.70;;;;;;;24.41;70.17;101510.00;5055251;28;20045;-50
2022/08/25 00:20:21;;;;;;;7.03;4.15;;;;;;;24.40;69.87;101508.38;5055013;28;20423;-50
2022/08/25 00:22:49;;;;;;;8.40;4.20;;;;;;;24.36;69.42;101513.81;5073015;28;20047;-51
2022/08/25 00:25:17;;;;;;;8.90;3.65;;;;;;;24.37;69.71;101509.09;5072372;28;20059;-51
2022/08/25 00:27:46;;;;;;;7.75;4.30;;;;;;;24.36;69.13;101510.22;5055517;28;20089;-52
2022/08/25 00:30:15;;;;;;;9.05;4.45;;;;;;;24.35;69.51;101511.41;5072953;28;20048;-51
2022/08/25 00:32:44;;;;;;;8.38;3.90;;;;;;;24.34;69.35;101504.19;5055181;28;20056;-50
2022/08/25 00:35:24;;;;;;;8.18;4.35;;;;;;;24.33;68.62;101506.16;5072192;28;20440;-50
2022/08/25 00:37:52;;;;;;;7.15;4.13;;;;;;;24.30;68.47;101514.41;5053867;28;20044;-50
2022/08/25 00:40:21;;;;;;;8.90;4.40;;;;;;;24.27;68.05;101509.50;5073025;28;20495;-53
2022/08/25 00:42:49;;;;;;;8.10;4.45;;;;;;;24.27;67.77;101520.66;5072793;28;20044;-54
2022/08/25 00:45:17;;;;;;;7.57;4.28;;;;;;;24.27;67.54;101517.88;5073269;28;20044;-54
2022/08/25 00:47:45;;;;;;;7.35;4.40;;;;;;;24.26;67.21;101519.03;5054583;28;20037;-51
2022/08/25 00:50:13;;;;;;;9.80;4.60;;;;;;;24.21;66.95;101512.53;5037187;28;20052;-48
2022/08/25 00:52:47;;;;;;;8.35;4.47;;;;;;;24.20;67.00;101516.47;5072265;28;20040;-53
2022/08/25 00:55:31;;;;;;;10.45;5.00;;;;;;;24.18;66.00;101517.97;5072982;28;20040;-57
2022/08/25 00:58:13;;;;;;;9.95;4.50;;;;;;;24.14;66.00;101514.25;5073271;28;20036;-52
2022/08/25 01:00:45;;;;;;;12.07;4.88;;;;;;;24.14;65.50;101517.84;5072651;28;20056;-52
2022/08/25 01:03:13;;;;;;;8.45;4.40;;;;;;;24.10;65.31;101516.91;5073532;28;20041;-57
2022/08/25 01:05:41;;;;;;;11.00;4.95;;;;;;;24.08;65.10;101519.22;5056580;28;20124;-56
2022/08/25 01:08:09;;;;;;;10.00;4.72;;;;;;;24.06;64.58;101518.75;5056855;28;20049;-56
2022/08/25 01:10:41;;;;;;;7.18;4.57;;;;;;;24.03;64.79;101511.91;5071571;28;20469;-54
2022/08/25 01:13:19;;;;;;;9.10;4.70;;;;;;;23.97;64.39;101506.88;5054359;28;20085;-53
2022/08/25 01:15:47;;;;;;;8.27;4.57;;;;;;;23.93;64.32;101511.50;5055246;28;20040;-52
2022/08/25 01:18:15;;;;;;;9.65;4.55;;;;;;;23.94;64.08;101513.16;5054161;28;20052;-53
2022/08/25 01:20:45;;;;;;;10.55;4.70;;;;;;;23.92;64.35;101512.66;5072832;28;20131;-54
2022/08/25 01:23:13;;;;;;;10.40;4.40;;;;;;;23.95;64.25;101514.75;5072697;28;20044;-51
2022/08/25 01:26:03;;;;;;;13.13;4.22;;;;;;;23.99;63.26;101518.50;5071892;28;20044;-52
2022/08/25 01:28:31;;;;;;;7.43;4.25;;;;;;;23.93;63.07;101514.28;5071745;28;20045;-51
2022/08/25 01:30:59;;;;;;;7.45;4.13;;;;;;;23.86;63.37;101520.44;5071881;28;20086;-53
2022/08/25 01:33:27;;;;;;;7.68;4.05;;;;;;;23.82;63.15;101522.25;5055082;28;20036;-51
2022/08/25 01:35:55;;;;;;;5.68;3.35;;;;;;;23.81;62.51;101518.66;5072803;28;20099;-53
2022/08/25 01:38:23;;;;;;;8.30;4.18;;;;;;;23.79;62.26;101518.19;5072055;28;20495;-52
2022/08/25 01:40:50;;;;;;;7.72;3.83;;;;;;;23.79;62.41;101520.16;5054018;28;20045;-49
2022/08/25 01:43:30;;;;;;;7.88;4.45;;;;;;;23.79;61.69;101518.19;5076155;28;20051;-51
2022/08/25 01:45:58;;;;;;;8.48;4.15;;;;;;;23.80;61.52;101516.22;5058274;28;20559;-48
2022/08/25 01:48:26;;;;;;;10.40;4.43;;;;;;;23.81;61.25;101509.47;5074159;28;20033;-51
2022/08/25 01:50:53;;;;;;;8.27;4.30;;;;;;;23.81;60.76;101518.66;5057689;28;20060;-53
2022/08/25 01:53:30;;;;;;;10.15;4.57;;;;;;;23.74;60.66;101521.19;5057053;28;20036;-52
2022/08/25 01:56:09;;;;;;;11.20;4.20;;;;;;;23.69;60.79;101518.59;5058732;28;20036;-51
2022/08/25 01:58:38;;;;;;;9.93;4.35;;;;;;;23.66;60.61;101518.44;5076164;28;20044;-52
2022/08/25 02:01:10;;;;;;;6.72;3.85;;;;;;;23.64;60.61;101515.16;5058038;28;20051;-52
2022/08/25 02:03:39;;;;;;;8.02;4.15;;;;;;;23.64;60.43;101517.97;5075381;28;20052;-52
2022/08/25 02:06:11;;;;;;;9.80;4.55;;;;;;;23.64;60.36;101517.97;5057836;28;20044;-51
2022/08/25 02:08:39;;;;;;;9.07;4.43;;;;;;;23.62;60.24;101518.31;5074545;28;20076;-52
2022/08/25 02:11:11;;;;;;;8.38;4.03;;;;;;;23.61;60.43;101522.22;5075929;28;20157;-51
2022/08/25 02:13:40;;;;;;;9.57;4.40;;;;;;;23.60;59.83;101520.63;5076057;28;20037;-50
2022/08/25 02:16:09;;;;;;;11.73;4.68;;;;;;;23.60;59.63;101515.06;5057725;28;20037;-50
2022/08/25 02:18:37;;;;;;;10.70;4.13;;;;;;;23.61;59.64;101511.09;5074840;28;20101;-51
2022/08/25 02:21:04;;;;;;;8.82;4.40;;;;;;;23.62;59.50;101507.19;5075317;28;20036;-50
2022/08/25 02:23:32;;;;;;;11.63;4.75;;;;;;;23.64;58.79;101515.16;5041368;28;20102;-54
2022/08/25 02:26:00;;;;;;;13.52;4.53;;;;;;;23.60;58.59;101509.50;5075287;28;20093;-54
2022/08/25 02:28:27;;;;;;;10.70;4.63;;;;;;;23.56;58.90;101512.13;5075318;28;20037;-54
2022/08/25 02:30:55;;;;;;;9.05;4.55;;;;;;;23.50;58.72;101515.44;5075439;28;20105;-50
2022/08/25 02:33:27;;;;;;;9.93;4.70;;;;;;;23.47;58.37;101505.00;5076171;28;20045;-51
2022/08/25 02:36:01;;;;;;;16.48;4.82;;;;;;;23.44;58.66;101506.50;5075984;28;20402;-52
2022/08/25 02:38:29;;;;;;;8.13;4.22;;;;;;;23.41;58.48;101506.38;5075195;28;20048;-52
2022/08/25 02:40:58;;;;;;;10.45;4.55;;;;;;;23.35;58.15;101498.22;5073967;28;20380;-53
2022/08/25 02:43:27;;;;;;;10.68;4.60;;;;;;;23.29;58.70;101496.78;5066671;28;20049;-51
2022/08/25 02:45:55;;;;;;;10.65;4.68;;;;;;;23.32;58.49;101503.66;5058064;28;20499;-50
2022/08/25 02:48:23;;;;;;;10.45;4.68;;;;;;;23.32;58.17;101498.91;5075239;28;20052;-49
2022/08/25 02:50:51;;;;;;;12.57;4.65;;;;;;;23.31;58.22;101494.50;5074215;28;20087;-55
2022/08/25 02:53:20;;;;;;;9.43;4.30;;;;;;;23.25;58.16;101495.84;5074983;28;20045;-52
2022/08/25 02:55:48;;;;;;;11.00;4.90;;;;;;;23.22;58.21;101488.19;5074587;28;20044;-53
2022/08/25 02:58:15;;;;;;;9.55;4.20;;;;;;;23.20;58.27;101501.59;5074415;28;20044;-50
2022/08/25 03:00:44;;;;;;;9.85;4.40;;;;;;;23.22;58.21;101493.75;5075032;28;20060;-51
2022/08/25 03:03:13;;;;;;;12.85;4.32;;;;;;;23.22;57.90;101485.41;5073517;28;20056;-51
2022/08/25 03:05:41;;;;;;;10.75;4.60;;;;;;;23.19;58.24;101486.09;5056976;28;20044;-52
2022/08/25 03:08:09;;;;;;;9.57;4.70;;;;;;;23.17;58.05;101488.38;5074646;28;20052;-52
2022/08/25 03:10:37;;;;;;;13.82;4.80;;;;;;;23.15;57.85;101485.13;5039907;28;20052;-52
2022/08/25 03:13:05;;;;;;;9.38;5.00;;;;;;;23.13;57.82;101481.84;5055003;28;20056;-51
2022/08/25 03:15:36;;;;;;;8.45;4.35;;;;;;;23.08;58.10;101477.31;5074374;28;20052;-51
2022/08/25 03:18:04;;;;;;;8.40;4.40;;;;;;;23.07;57.97;101480.44;5074548;28;20048;-51
2022/08/25 03:20:35;;;;;;;15.80;5.30;;;;;;;23.10;57.84;101472.22;5057078;28;20085;-52
2022/08/25 03:23:03;;;;;;;7.38;4.28;;;;;;;23.10;57.68;101474.19;5074163;28;20040;-52
2022/08/25 03:28:17;;;;;;;10.70;4.57;;;;;;;23.08;57.50;101474.53;5074105;28;20067;-51
2022/08/25 03:30:47;;;;;;;9.65;4.72;;;;;;;23.05;57.39;101466.06;5073597;28;20033;-52
2022/08/25 03:33:22;;;;;;;9.57;4.70;;;;;;;23.01;57.33;101465.91;5074546;28;20041;-52
2022/08/25 03:35:50;;;;;;;8.77;4.53;;;;;;;22.98;57.27;101463.81;5073626;28;20040;-54
2022/08/25 03:38:17;;;;;;;9.10;4.38;;;;;;;23.01;56.99;101465.09;5073141;28;20044;-55
2022/08/25 03:40:45;;;;;;;11.52;4.45;;;;;;;23.02;57.18;101467.56;5055784;28;20049;-52
2022/08/25 03:43:13;;;;;;;9.32;4.95;;;;;;;23.06;56.72;101457.38;5073919;28;20043;-49
2022/08/25 03:45:46;;;;;;;11.35;4.63;;;;;;;23.03;56.65;101462.81;5073158;28;20036;-53
2022/08/25 03:48:15;;;;;;;9.23;4.47;;;;;;;23.02;56.50;101456.44;5073918;28;20043;-52
2022/08/25 03:50:48;;;;;;;10.50;4.30;;;;;;;23.03;56.58;101458.06;5055566;28;20037;-53
2022/08/25 03:53:19;;;;;;;15.00;4.20;;;;;;;23.04;56.02;101450.53;5065573;28;20039;-53
2022/08/25 03:55:47;;;;;;;8.90;4.88;;;;;;;23.02;55.53;101453.66;5056257;28;20052;-51
2022/08/25 03:58:15;;;;;;;11.63;4.80;;;;;;;22.94;55.35;101452.50;5054010;28;20511;-51
2022/08/25 04:00:43;;;;;;;11.50;5.05;;;;;;;22.89;55.59;101447.16;5073080;28;20040;-51
2022/08/25 04:03:11;;;;;;;8.35;4.38;;;;;;;22.88;55.54;101451.09;5052784;28;20568;-51
2022/08/25 04:05:39;;;;;;;10.30;4.57;;;;;;;22.87;55.08;101443.88;5072615;28;20052;-52
2022/08/25 04:08:08;;;;;;;9.82;4.80;;;;;;;22.88;55.21;101439.97;5055793;28;20044;-52
2022/08/25 04:10:37;;;;;;;9.48;4.65;;;;;;;22.87;54.52;101432.78;5073281;28;20059;-53
2022/08/25 04:13:05;;;;;;;10.52;4.40;;;;;;;22.83;54.91;101434.63;5073013;28;20384;-52
2022/08/25 04:15:33;;;;;;;7.25;4.10;;;;;;;22.84;55.01;101444.56;5071776;28;20557;-53
2022/08/25 04:18:00;;;;;;;8.00;4.25;;;;;;;22.87;54.38;101438.34;5055306;28;20430;-51
2022/08/25 04:20:28;;;;;;;8.60;3.78;;;;;;;22.86;54.71;101431.16;5050515;28;20049;-53
2022/08/25 04:23:00;;;;;;;8.98;4.05;;;;;;;22.90;54.25;101434.91;5073465;28;20094;-54
2022/08/25 04:25:28;;;;;;;11.55;4.05;;;;;;;22.94;54.27;101435.03;5072536;28;20040;-54
2022/08/25 04:27:56;;;;;;;9.07;4.15;;;;;;;22.94;53.48;101437.81;5054709;28;20032;-50
2022/08/25 04:30:24;;;;;;;7.88;4.30;;;;;;;22.94;53.74;101433.06;5073064;28;20040;-48
2022/08/25 04:32:51;;;;;;;8.13;4.10;;;;;;;22.94;53.27;101435.03;5035843;28;20411;-52
2022/08/25 04:35:21;;;;;;;7.97;3.95;;;;;;;22.91;53.05;101433.75;5055690;28;20097;-50
2022/08/25 04:37:48;;;;;;;8.60;4.55;;;;;;;22.85;53.25;101435.09;5072955;28;20037;-53
2022/08/25 04:40:16;;;;;;;11.75;4.60;;;;;;;22.83;53.27;101428.25;5054192;28;20082;-55
2022/08/25 04:42:44;;;;;;;9.75;3.95;;;;;;;22.81;53.39;101433.31;5073197;28;20096;-52
2022/08/25 04:45:14;;;;;;;7.65;4.25;;;;;;;22.80;53.13;101438.06;5072811;28;20405;-52
2022/08/25 04:47:42;;;;;;;10.02;4.13;;;;;;;22.73;53.25;101426.69;5072970;28;20040;-53
2022/08/25 04:50:09;;;;;;;9.38;4.60;;;;;;;22.70;53.39;101432.88;5072571;28;20040;-51
2022/08/25 04:52:37;;;;;;;9.57;4.15;;;;;;;22.68;53.33;101435.19;5053505;28;20056;-51
2022/08/25 04:55:06;;;;;;;7.43;3.67;;;;;;;22.66;53.33;101426.41;5073013;28;20049;-51
2022/08/25 04:57:33;;;;;;;10.15;3.88;;;;;;;22.66;54.46;101429.19;5073120;28;20048;-50
2022/08/25 05:00:02;;;;;;;6.45;3.58;;;;;;;22.69;54.31;101428.50;5072943;28;20044;-51
2022/08/25 05:02:30;;;;;;;6.72;3.53;;;;;;;22.77;53.73;101433.16;5072517;28;20461;-49
2022/08/25 05:04:58;;;;;;;9.98;3.70;;;;;;;22.80;54.07;101426.13;5071884;28;20040;-49
2022/08/25 05:07:26;;;;;;;11.85;4.40;;;;;;;22.84;53.43;101427.09;5072211;28;20053;-49
2022/08/25 05:09:53;;;;;;;8.93;3.80;;;;;;;22.88;53.39;101428.06;5073315;28;20048;-49
2022/08/25 05:12:21;;;;;;;7.93;3.70;;;;;;;22.90;52.95;101428.53;5072823;28;20044;-51
2022/08/25 05:14:52;;;;;;;7.18;3.60;;;;;;;22.90;52.71;101429.34;5073597;28;20052;-55
2022/08/25 05:17:20;;;;;;;7.88;3.75;;;;;;;22.90;52.53;101436.88;5075587;28;20102;-49
2022/08/25 05:19:49;;;;;;;11.13;3.85;;;;;;;22.89;52.76;101438.81;5077013;28;20085;-49
2022/08/25 05:22:16;;;;;;;14.30;3.92;;;;;;;22.90;52.71;101437.69;5076488;28;20184;-53
2022/08/25 05:24:44;;;;;;;8.65;3.97;;;;;;;22.93;52.54;101445.34;5078886;28;20072;-53
2022/08/25 05:27:12;;;;;;;12.05;4.20;;;;;;;22.93;52.34;101450.91;5076828;28;20040;-50
2022/08/25 05:29:40;;;;;;;9.73;4.22;;;;;;;22.94;52.83;101455.28;5076248;28;20094;-53
2022/08/25 05:32:08;;;;;;;8.02;3.83;;;;;;;22.95;52.19;101465.28;5074636;28;20052;-51
2022/08/25 05:34:37;;;;;;;9.25;3.38;;;;;;;22.95;52.46;101462.50;5076157;28;20060;-47
2022/08/25 05:37:04;;;;;;;17.17;4.78;;;;;;;22.96;52.58;101460.53;5076159;28;20048;-50
2022/08/25 05:39:38;;;;;;;11.25;4.07;;;;;;;22.96;52.13;101463.31;5076110;28;20037;-54
2022/08/25 05:42:05;;;;;;;9.38;4.03;;;;;;;22.94;51.95;101466.41;4371860;28;10000497;-51
2022/08/25 05:44:33;;;;;;;13.20;3.90;;;;;;;22.93;52.39;101473.13;5071075;28;20044;-48
2022/08/25 05:47:01;;;;;;;15.18;4.68;;;;;;;22.94;52.15;101468.38;5069229;28;20048;-49
2022/08/25 05:49:29;;;;;;;19.60;5.10;;;;;;;22.96;52.48;101464.09;5054740;28;20037;-53
2022/08/25 05:51:56;;;;;;;22.05;5.35;;;;;;;22.95;52.39;101462.50;5072607;28;20051;-51
2022/08/25 05:54:24;;;;;;;20.20;5.57;;;;;;;22.96;52.32;101464.09;5072037;28;20053;-52
2022/08/25 05:56:52;;;;;;;14.45;4.90;;;;;;;22.96;52.28;101464.09;5074355;28;20048;-52
2022/08/25 05:59:19;;;;;;;10.98;4.40;;;;;;;22.99;52.18;101467.41;5076072;28;20067;-52
2022/08/25 06:04:33;;;;;;;8.27;3.78;;;;;;;23.04;52.38;101467.19;5076026;28;20053;-51
2022/08/25 06:07:05;;;;;;;12.50;4.60;;;;;;;23.06;52.17;101467.69;5057815;28;20089;-51
2022/08/25 06:09:32;;;;;;;11.60;3.75;;;;;;;23.08;52.31;101468.16;5074578;28;20503;-49
2022/08/25 06:12:00;;;;;;;7.93;3.65;;;;;;;23.10;52.11;101469.44;5075554;28;20053;-50
2022/08/25 06:14:28;;;;;;;9.10;3.75;;;;;;;23.13;52.02;101473.53;5074982;28;20044;-49
2022/08/25 06:16:55;;;;;;;7.75;3.40;;;;;;;23.14;52.10;101475.16;5074893;28;20407;-49
2022/08/25 06:19:24;;;;;;;10.43;3.95;;;;;;;23.16;52.01;101464.50;5069785;28;20503;-54
2022/08/25 06:21:57;;;;;;;7.90;3.47;;;;;;;23.20;52.31;101468.22;5073529;28;20037;-53
2022/08/25 06:24:26;;;;;;;7.82;3.47;;;;;;;23.21;52.14;101467.09;5056154;28;20036;-52
2022/08/25 06:26:55;;;;;;;12.93;3.83;;;;;;;23.22;51.87;101471.50;5073975;28;20406;-50
2022/08/25 06:29:23;;;;;;;8.68;3.72;;;;;;;23.23;52.03;101473.13;5075114;28;20085;-50
2022/08/25 06:31:51;;;;;;;8.63;3.50;;;;;;;23.24;52.00;101469.19;5053307;28;20110;-49
2022/08/25 06:34:19;;;;;;;10.73;4.00;;;;;;;23.26;52.14;101464.13;5053117;28;20373;-50
2022/08/25 06:36:50;;;;;;;7.95;4.28;;;;;;;23.29;52.32;101466.22;5055460;28;20526;-51
2022/08/25 06:39:18;;;;;;;12.35;3.92;;;;;;;23.30;52.23;101467.00;5055060;28;20075;-52
2022/08/25 06:41:53;;;;;;;12.15;4.60;;;;;;;23.32;52.54;101461.94;5055184;28;20045;-54
2022/08/25 06:44:21;;;;;;;10.27;4.13;;;;;;;23.33;52.38;101472.72;5052919;28;20060;-53
2022/08/25 06:46:49;;;;;;;9.63;4.18;;;;;;;23.33;52.26;101471.88;5019122;28;20522;-50
2022/08/25 06:49:17;;;;;;;9.77;4.40;;;;;;;23.32;52.09;101465.53;5054778;28;20045;-53
2022/08/25 06:51:45;;;;;;;10.88;4.05;;;;;;;23.32;52.37;101471.09;5055002;28;20041;-49
2022/08/25 06:54:13;;;;;;;12.73;4.68;;;;;;;23.33;52.65;101467.16;5054885;28;20391;-51
2022/08/25 06:56:41;;;;;;;7.55;4.03;;;;;;;23.34;52.48;101466.00;5053904;28;20389;-53
2022/08/25 06:59:09;;;;;;;9.43;4.15;;;;;;;23.35;52.54;101464.03;5051515;28;20037;-50
2022/08/25 07:01:37;;;;;;;9.68;4.40;;;;;;;23.37;52.52;101468.09;5053259;28;20045;-49
2022/08/25 07:04:06;;;;;;;8.48;4.57;;;;;;;23.42;52.75;101457.94;5043458;28;20044;-48
2022/08/25 07:06:39;;;;;;;17.48;5.63;;;;;;;23.45;52.52;101462.81;5054499;28;20041;-49
2022/08/25 07:09:09;;;;;;;11.98;5.45;;;;;;;23.47;52.51;101452.97;5053188;28;20048;-50
2022/08/25 07:11:37;;;;;;;15.15;4.63;;;;;;;23.49;52.47;101441.50;5052710;28;20049;-47
2022/08/25 07:14:07;;;;;;;12.25;4.32;;;;;;;23.51;52.50;101445.56;5053944;28;20055;-48
2022/08/25 07:16:35;;;;;;;13.15;4.45;;;;;;;23.55;52.59;101459.63;5053812;28;20098;-49
2022/08/25 07:19:04;;;;;;;11.73;4.78;;;;;;;23.58;52.60;101458.94;5054159;28;20527;-52
2022/08/25 07:21:37;;;;;;;8.98;4.30;;;;;;;23.61;52.55;101453.50;5053117;28;20044;-50
2022/08/25 07:24:08;;;;;;;11.15;4.68;;;;;;;23.66;52.72;101455.25;5052754;28;20056;-47
2022/08/25 07:26:35;;;;;;;17.52;4.78;;;;;;;23.69;52.62;101456.53;5052591;28;20043;-47
2022/08/25 07:29:12;;;;;;;16.30;4.63;;;;;;;23.72;52.44;101456.69;5053599;28;20037;-51
2022/08/25 07:31:40;;;;;;;7.30;4.22;;;;;;;23.73;52.79;101447.19;5063164;28;20063;-52
2022/08/25 07:36:56;;;;;;;11.68;4.57;;;;;;;23.80;52.43;101452.22;5070723;28;20410;-50
2022/08/25 07:39:25;;;;;;;14.43;4.70;;;;;;;23.85;52.42;101459.53;5054358;28;20040;-51
2022/08/25 07:41:55;;;;;;;12.07;4.93;;;;;;;23.87;52.25;101455.25;5073138;28;20438;-50
2022/08/25 07:44:24;;;;;;;13.50;4.57;;;;;;;23.89;52.24;101457.69;5073505;28;20063;-55
2022/08/25 07:46:55;;;;;;;15.25;5.97;;;;;;;23.89;52.58;101454.91;5073501;28;20053;-49
2022/08/25 07:49:24;;;;;;;20.45;6.90;;;;;;;23.90;52.24;101448.97;5072333;28;20041;-48
2022/08/25 07:52:02;;;;;;;19.83;6.90;;;;;;;23.93;52.40;101450.25;5073545;28;20048;-52
2022/08/25 07:54:34;;;;;;;23.48;8.38;;;;;;;23.94;52.19;101449.94;5072784;28;20032;-50
2022/08/25 07:57:06;;;;;;;10.50;4.68;;;;;;;23.98;52.12;101453.66;5068659;28;20048;-50
2022/08/25 07:59:38;;;;;;;14.43;4.10;;;;;;;24.01;52.05;101452.97;5072058;28;20040;-49
2022/08/25 08:02:09;;;;;;;21.33;7.28;;;;;;;24.06;52.01;101453.91;5072170;28;20032;-48
2022/08/25 08:04:50;;;;;;;18.90;6.43;;;;;;;24.10;51.88;101447.31;5072104;28;20048;-50
2022/08/25 08:07:19;;;;;;;12.35;4.55;;;;;;;24.18;51.67;101437.22;5055195;28;20090;-49
2022/08/25 08:09:49;;;;;;;17.98;6.40;;;;;;;24.24;51.50;101438.59;5072700;28;20398;-49
2022/08/25 08:12:38;;;;;;;13.73;6.30;;;;;;;24.26;51.49;101435.50;5066664;28;20044;-50
2022/08/25 08:15:06;;;;;;;19.45;6.72;;;;;;;24.26;50.88;101436.28;5053157;28;20032;-51
2022/08/25 08:17:38;;;;;;;16.15;6.35;;;;;;;24.29;51.07;101434.78;5072798;28;20040;-52
2022/08/25 08:20:08;;;;;;;13.55;5.00;;;;;;;24.31;50.88;101430.50;5053484;28;20415;-51
2022/08/25 08:22:40;;;;;;;21.38;8.18;;;;;;;24.32;51.30;101426.56;5072172;28;20048;-51
2022/08/25 08:25:10;;;;;;;14.35;4.70;;;;;;;24.36;51.87;101429.47;5071582;28;20066;-50
2022/08/25 08:27:45;;;;;;;27.23;9.95;;;;;;;24.41;51.99;101434.78;5055897;28;20392;-52
2022/08/25 08:30:13;;;;;;;14.48;4.93;;;;;;;24.49;51.94;101433.91;5054355;28;20040;-52
2022/08/25 08:32:42;;;;;;;10.88;4.80;;;;;;;24.58;51.76;101431.81;5070850;28;20094;-50
2022/08/25 08:35:29;;;;;;;12.80;5.32;;;;;;;24.73;51.65;101426.72;5072421;28;20460;-49
2022/08/25 08:37:57;;;;;;;15.35;4.97;;;;;;;24.74;51.38;101423.56;5038411;28;20044;-53
2022/08/25 08:40:25;;;;;;;17.38;4.50;;;;;;;24.81;51.46;101426.56;5071785;28;20097;-48
2022/08/25 08:43:08;;;;;;;12.45;4.43;;;;;;;24.84;51.17;101423.06;5072705;28;20040;-54
2022/08/25 08:45:50;;;;;;;14.18;4.70;;;;;;;24.87;50.59;101416.00;5071071;28;20503;-47
2022/08/25 08:48:38;;;;;;;32.88;12.20;;;;;;;24.85;50.60;101409.97;5069955;28;20060;-46
2022/08/25 08:51:25;;;;;;;13.60;6.15;;;;;;;24.85;50.10;101412.75;5049535;28;20494;-53
2022/08/25 08:54:17;;;;;;;19.42;7.30;;;;;;;24.87;50.50;101410.44;5070941;28;20400;-50
2022/08/25 08:56:47;;;;;;;25.90;9.30;;;;;;;24.89;50.25;101416.44;5069612;28;20498;-50
2022/08/25 08:59:21;;;;;;;14.18;5.88;;;;;;;24.92;50.23;101410.19;5053613;28;20504;-51
2022/08/25 09:02:02;;;;;;;21.70;7.90;;;;;;;25.01;50.05;101410.84;5069021;28;20037;-51
2022/08/25 09:04:35;;;;;;;19.17;5.40;;;;;;;25.11;49.92;101408.72;5071249;28;20040;-49
2022/08/25 09:07:08;;;;;;;11.35;5.03;;;;;;;25.24;49.24;101415.94;5037854;28;20066;-49
2022/08/25 09:09:36;;;;;;;13.73;4.50;;;;;;;25.30;48.66;101417.28;5069708;28;20053;-56
2022/08/25 09:12:20;;;;;;;17.33;6.32;;;;;;;25.35;48.76;101414.28;5059514;28;20056;-50
2022/08/25 09:15:14;;;;;;;21.60;8.13;;;;;;;25.33;49.19;101410.19;5054506;28;20041;-48
2022/08/25 09:17:47;;;;;;;27.55;9.32;;;;;;;25.31;49.13;101412.56;5027091;28;20040;-49
2022/08/25 09:20:39;;;;;;;23.25;7.97;;;;;;;25.32;48.62;101414.16;5053710;28;20438;-48
2022/08/25 09:23:22;;;;;;;14.57;5.32;;;;;;;25.39;48.62;101414.38;5071217;28;20131;-51
2022/08/25 09:26:34;;;;;;;15.60;5.93;;;;;;;25.41;48.82;101412.03;5070365;28;20036;-53
2022/08/25 09:29:16;;;;;;;36.55;13.90;;;;;;;25.44;48.84;101414.91;5071895;28;20483;-52
2022/08/25 09:31:44;;;;;;;19.85;8.20;;;;;;;25.49;49.41;101416.63;5072218;28;20442;-46
2022/08/25 09:34:19;;;;;;;18.70;6.88;;;;;;;25.51;49.68;101406.75;5053536;28;20036;-54
2022/08/25 09:36:49;;;;;;;15.47;5.10;;;;;;;25.66;49.39;101405.19;5072192;28;20047;-52
2022/08/25 09:39:19;;;;;;;13.52;5.03;;;;;;;25.81;48.02;101399.97;5071745;28;20491;-54
2022/08/25 09:41:56;;;;;;;18.65;5.45;;;;;;;26.00;47.56;101405.72;5071158;28;20037;-53
2022/08/25 09:44:32;;;;;;;10.90;4.80;;;;;;;26.07;47.57;101400.31;5067846;28;20101;-49
2022/08/25 09:47:22;;;;;;;24.23;5.60;;;;;;;26.23;47.31;101400.28;5048129;28;20071;-48
2022/08/25 09:49:59;;;;;;;14.30;4.40;;;;;;;26.27;47.11;101398.41;5070730;28;20052;-51
2022/08/25 09:52:32;;;;;;;11.90;4.25;;;;;;;26.31;47.03;101398.47;5070558;28;20495;-50
2022/08/25 09:55:15;;;;;;;21.98;5.18;;;;;;;26.40;46.44;101401.91;5072036;28;20502;-50
2022/08/25 09:57:42;;;;;;;15.85;4.93;;;;;;;26.30;46.97;101396.88;5070874;28;20043;-49
2022/08/25 10:00:14;;;;;;;18.88;4.57;;;;;;;26.34;46.94;101397.78;5071991;28;20037;-50
2022/08/25 10:02:44;;;;;;;11.73;4.47;;;;;;;26.49;45.84;101404.50;5056425;28;20444;-53
2022/08/25 10:05:21;;;;;;;15.30;5.00;;;;;;;26.55;46.00;101394.69;5056481;28;20040;-51
2022/08/25 10:07:55;;;;;;;18.27;4.80;;;;;;;26.52;46.43;101392.59;5058334;28;20101;-48
2022/08/25 10:10:34;;;;;;;14.50;4.90;;;;;;;26.45;45.57;101386.84;5057301;28;20110;-49
2022/08/25 10:13:03;;;;;;;12.15;4.30;;;;;;;26.44;45.66;101385.22;5057860;28;20040;-46
2022/08/25 10:15:35;;;;;;;16.02;4.55;;;;;;;26.50;46.55;101378.16;5054927;28;22086;-51
2022/08/25 10:18:23;;;;;;;14.00;4.70;;;;;;;26.51;46.87;101374.22;5071979;28;20513;-51
2022/08/25 10:21:04;;;;;;;16.30;5.07;;;;;;;26.51;46.88;101375.03;5073730;28;20037;-49
2022/08/25 10:23:43;;;;;;;14.23;4.57;;;;;;;26.63;46.62;101365.75;5075061;28;20086;-49
2022/08/25 10:26:19;;;;;;;14.10;4.70;;;;;;;26.65;45.67;101368.16;5056130;28;20043;-51
2022/08/25 10:28:50;;;;;;;15.32;4.25;;;;;;;27.05;44.23;101367.84;5056202;28;20036;-48
2022/08/25 10:31:31;;;;;;;14.55;5.57;;;;;;;27.28;43.54;101356.75;5056853;28;20407;-51
2022/08/25 10:34:23;;;;;;;10.63;4.53;;;;;;;27.30;43.64;101354.41;5052500;28;20047;-49
2022/08/25 10:37:35;;;;;;;15.40;5.38;;;;;;;27.15;42.84;101347.66;5066730;28;20048;-49
2022/08/25 10:40:26;;;;;;;16.10;6.25;;;;;;;27.07;42.26;101345.91;5036259;28;20418;-49
2022/08/25 10:43:05;;;;;;;17.48;5.22;;;;;;;27.08;42.81;101347.50;5072650;28;20043;-48
2022/08/25 10:46:01;;;;;;;15.40;5.88;;;;;;;27.11;40.73;101334.81;5074792;28;20093;-48
2022/08/25 10:48:47;;;;;;;18.02;7.72;;;;;;;27.03;40.56;101328.22;5062047;28;20093;-50
2022/08/25 10:51:28;;;;;;;12.88;3.78;;;;;;;27.17;40.15;101327.72;5073677;28;20043;-50
2022/08/25 10:54:12;;;;;;;26.63;9.43;;;;;;;27.15;39.35;101330.06;5074705;28;20052;-50
2022/08/25 10:56:55;;;;;;;21.08;7.68;;;;;;;27.09;39.83;101326.78;5073608;28;20067;-50
2022/08/25 10:59:53;;;;;;;14.07;5.10;;;;;;;27.23;39.53;101317.06;5072233;28;20043;-50
2022/08/25 11:02:45;;;;;;;9.73;3.67;;;;;;;27.24;39.55;101316.69;5042572;28;20056;-49
2022/08/25 11:05:16;;;;;;;11.85;5.32;;;;;;;27.22;39.67;101321.03;5071746;28;20029;-47
2022/08/25 11:08:03;;;;;;;10.95;4.95;;;;;;;27.22;38.76;101318.25;5029035;28;20045;-49
2022/08/25 11:10:49;;;;;;;14.27;6.85;;;;;;;27.15;39.64;101319.69;5073947;28;20041;-52
2022/08/25 11:13:34;;;;;;;10.60;3.60;;;;;;;27.27;37.74;101309.56;5052185;28;20044;-49
2022/08/25 11:16:16;;;;;;;14.70;6.00;;;;;;;27.40;37.55;101303.41;5071353;28;20047;-52
2022/08/25 11:19:05;;;;;;;13.95;4.88;;;;;;;27.35;38.10;101309.31;5072883;28;20416;-55
2022/08/25 11:22:04;;;;;;;8.40;4.15;;;;;;;27.46;37.88;101301.13;5070433;28;20127;-51
2022/08/25 11:24:51;;;;;;;8.75;3.33;;;;;;;27.48;37.62;101298.75;5056222;28;20051;-53
2022/08/25 11:27:29;;;;;;;7.03;3.42;;;;;;;27.50;37.18;101296.41;5073692;28;20033;-52
2022/08/25 11:30:06;;;;;;;10.30;3.50;;;;;;;27.48;38.23;101287.56;5073607;28;20033;-52
2022/08/25 11:32:35;;;;;;;15.48;6.93;;;;;;;27.45;38.18;101285.50;5073265;28;20048;-48
2022/08/25 11:35:09;;;;;;;11.52;4.85;;;;;;;27.42;38.52;101289.06;5062138;28;20044;-52
2022/08/25 11:37:54;;;;;;;13.65;5.28;;;;;;;27.34;38.70;101281.69;5054514;28;20037;-49
2022/08/25 11:41:01;;;;;;;15.63;5.00;;;;;;;27.27;39.42;101278.78;4356255;28;10000717;-49
2022/08/25 11:43:50;;;;;;;10.40;3.83;;;;;;;27.31;38.99;101274.06;4997702;28;20077;-50
2022/08/25 11:46:20;;;;;;;10.57;3.88;;;;;;;27.34;38.79;101268.50;5003684;28;20528;-49
2022/08/25 11:49:12;;;;;;;;;;;;;;;27.32;38.81;101267.25;5040589;28;20445;-51
2022/08/25 11:51:41;;;;;;;11.75;5.25;;;;;;;27.29;38.35;101271.63;5069119;28;19932;-47